sensor_id;sensor_type;location;lat;lon;timestamp;pressure;altitude;pressure_sealevel;temperature;humidity
43818;BME280;29868;47.360;18.984;2022-11-20T11:13:26;99966.53;;;8.15;100.00
43818;BME280;29868;47.360;18.984;2022-11-20T11:15:55;99962.75;;;8.43;100.00
43818;BME280;29868;47.360;18.984;2022-11-20T11:18:31;99965.31;;;8.42;100.00
43818;BME280;29868;47.360;18.984;2022-11-20T11:20:59;99951.44;;;7.94;100.00
43818;BME280;29868;47.360;18.984;2022-11-20T11:25:57;99948.72;;;8.32;100.00
43818;BME280;29868;47.360;18.984;2022-11-20T11:28:24;99953.31;;;8.01;100.00
43818;BME280;29868;47.360;18.984;2022-11-20T11:30:51;99948.28;;;8.08;100.00
43818;BME280;29868;47.360;18.984;2022-11-20T11:35:49;99944.84;;;8.09;100.00
43818;BME280;29868;47.360;18.984;2022-11-20T11:38:29;99946.56;;;8.10;100.00
43818;BME280;29868;47.360;18.984;2022-11-20T11:40:56;99947.22;;;7.98;100.00
43818;BME280;29868;47.360;18.984;2022-11-20T11:43:27;99930.88;;;8.00;100.00
43818;BME280;29868;47.360;18.984;2022-11-20T11:46:31;99928.53;;;7.69;100.00
43818;BME280;29868;47.360;18.984;2022-11-20T11:51:40;99920.69;;;7.64;100.00
43818;BME280;29868;47.360;18.984;2022-11-20T11:54:21;99916.50;;;7.71;100.00
43818;BME280;29868;47.360;18.984;2022-11-20T11:56:49;99921.53;;;7.65;100.00
43818;BME280;29868;47.360;18.984;2022-11-20T12:02:27;99919.75;;;8.06;100.00
43818;BME280;29868;47.360;18.984;2022-11-20T12:05:02;99916.66;;;8.24;100.00
43818;BME280;29868;47.360;18.984;2022-11-20T12:07:38;99913.00;;;8.11;100.00
43818;BME280;29868;47.360;18.984;2022-11-20T12:10:08;99907.56;;;7.99;100.00
43818;BME280;29868;47.360;18.984;2022-11-20T12:12:42;99909.69;;;8.20;100.00
43818;BME280;29868;47.360;18.984;2022-11-20T12:15:20;99916.97;;;7.95;100.00
43818;BME280;29868;47.360;18.984;2022-11-20T12:17:48;99918.50;;;7.84;100.00
43818;BME280;29868;47.360;18.984;2022-11-20T12:20:14;99913.50;;;7.93;100.00
43818;BME280;29868;47.360;18.984;2022-11-20T12:22:57;99912.91;;;7.63;100.00
43818;BME280;29868;47.360;18.984;2022-11-20T12:25:27;99908.88;;;7.77;100.00
43818;BME280;29868;47.360;18.984;2022-11-20T12:30:22;99908.16;;;7.42;100.00
43818;BME280;29868;47.360;18.984;2022-11-20T12:35:44;99920.34;;;7.47;100.00
43818;BME280;29868;47.360;18.984;2022-11-20T12:50:27;99933.03;;;7.77;100.00
43818;BME280;29868;47.360;18.984;2022-11-20T12:53:15;99928.03;;;7.87;100.00
43818;BME280;29868;47.360;18.984;2022-11-20T12:55:50;99933.91;;;7.78;100.00
43818;BME280;29868;47.360;18.984;2022-11-20T12:58:42;99920.97;;;7.79;100.00
43818;BME280;29868;47.360;18.984;2022-11-20T13:06:56;99928.88;;;7.87;100.00
43818;BME280;29868;47.360;18.984;2022-11-20T13:09:22;99928.00;;;7.85;100.00
43818;BME280;29868;47.360;18.984;2022-11-20T15:22:21;99919.38;;;5.69;100.00
43818;BME280;29868;47.360;18.984;2022-11-20T15:24:46;99916.81;;;5.70;100.00
43818;BME280;29868;47.360;18.984;2022-11-20T15:27:12;99919.28;;;5.66;100.00
43818;BME280;29868;47.360;18.984;2022-11-20T15:29:37;99916.72;;;5.66;100.00
43818;BME280;29868;47.360;18.984;2022-11-20T15:32:03;99924.91;;;5.52;100.00
43818;BME280;29868;47.360;18.984;2022-11-20T15:34:28;99921.44;;;5.50;100.00
43818;BME280;29868;47.360;18.984;2022-11-20T15:36:55;99926.88;;;5.31;100.00
43818;BME280;29868;47.360;18.984;2022-11-20T15:39:20;99921.75;;;5.32;100.00
43818;BME280;29868;47.360;18.984;2022-11-20T15:41:46;99927.78;;;5.33;100.00
43818;BME280;29868;47.360;18.984;2022-11-20T15:44:12;99930.63;;;5.13;100.00
43818;BME280;29868;47.360;18.984;2022-11-20T15:46:40;99929.72;;;5.11;100.00
43818;BME280;29868;47.360;18.984;2022-11-20T15:49:13;99930.78;;;4.91;100.00
43818;BME280;29868;47.360;18.984;2022-11-20T15:51:41;99929.56;;;4.80;100.00
43818;BME280;29868;47.360;18.984;2022-11-20T15:54:13;99925.38;;;4.82;100.00
43818;BME280;29868;47.360;18.984;2022-11-20T15:56:39;99930.38;;;4.77;100.00
43818;BME280;29868;47.360;18.984;2022-11-20T15:59:04;99924.53;;;4.56;100.00
43818;BME280;29868;47.360;18.984;2022-11-20T16:01:30;99924.78;;;4.38;100.00
43818;BME280;29868;47.360;18.984;2022-11-20T16:03:55;99927.78;;;4.25;100.00
43818;BME280;29868;47.360;18.984;2022-11-20T16:06:21;99922.13;;;4.09;100.00
43818;BME280;29868;47.360;18.984;2022-11-20T16:08:46;99923.47;;;4.00;100.00
43818;BME280;29868;47.360;18.984;2022-11-20T16:11:13;99925.66;;;3.89;100.00
43818;BME280;29868;47.360;18.984;2022-11-20T16:13:39;99918.53;;;3.80;100.00
43818;BME280;29868;47.360;18.984;2022-11-20T16:16:25;99926.81;;;3.73;100.00
43818;BME280;29868;47.360;18.984;2022-11-20T16:18:54;99927.59;;;3.71;100.00
43818;BME280;29868;47.360;18.984;2022-11-20T16:21:19;99923.31;;;3.71;100.00
43818;BME280;29868;47.360;18.984;2022-11-20T16:23:44;99923.88;;;3.86;100.00
43818;BME280;29868;47.360;18.984;2022-11-20T16:26:12;99921.94;;;4.05;100.00
43818;BME280;29868;47.360;18.984;2022-11-20T16:28:37;99921.78;;;4.00;100.00
43818;BME280;29868;47.360;18.984;2022-11-20T16:31:14;99925.59;;;4.11;100.00
43818;BME280;29868;47.360;18.984;2022-11-20T16:33:40;99925.56;;;4.10;100.00
43818;BME280;29868;47.360;18.984;2022-11-20T16:36:10;99926.88;;;4.24;100.00
43818;BME280;29868;47.360;18.984;2022-11-20T16:38:36;99913.13;;;4.22;100.00
43818;BME280;29868;47.360;18.984;2022-11-20T16:41:03;99915.53;;;4.18;100.00
43818;BME280;29868;47.360;18.984;2022-11-20T16:43:28;99911.44;;;4.24;100.00
43818;BME280;29868;47.360;18.984;2022-11-20T16:45:54;99916.78;;;4.29;100.00
43818;BME280;29868;47.360;18.984;2022-11-20T16:48:19;99908.22;;;4.30;100.00
43818;BME280;29868;47.360;18.984;2022-11-20T16:50:52;99911.44;;;4.24;100.00
43818;BME280;29868;47.360;18.984;2022-11-20T16:53:19;99917.31;;;4.20;100.00
43818;BME280;29868;47.360;18.984;2022-11-20T16:55:45;99908.59;;;4.15;100.00
43818;BME280;29868;47.360;18.984;2022-11-20T16:58:10;99909.75;;;3.99;100.00
43818;BME280;29868;47.360;18.984;2022-11-20T17:00:37;99904.75;;;4.02;100.00
43818;BME280;29868;47.360;18.984;2022-11-20T17:03:04;99901.44;;;4.06;100.00
43818;BME280;29868;47.360;18.984;2022-11-20T17:05:30;99889.00;;;4.19;100.00
43818;BME280;29868;47.360;18.984;2022-11-20T17:07:55;99897.91;;;4.03;100.00
43818;BME280;29868;47.360;18.984;2022-11-20T17:10:21;99885.63;;;3.94;100.00
43818;BME280;29868;47.360;18.984;2022-11-20T17:12:47;99880.25;;;3.88;100.00
43818;BME280;29868;47.360;18.984;2022-11-20T17:15:12;99878.50;;;3.87;100.00
43818;BME280;29868;47.360;18.984;2022-11-20T17:17:37;99869.63;;;3.79;100.00
43818;BME280;29868;47.360;18.984;2022-11-20T17:20:03;99863.28;;;3.68;100.00
43818;BME280;29868;47.360;18.984;2022-11-20T17:22:30;99853.16;;;3.72;100.00
43818;BME280;29868;47.360;18.984;2022-11-20T17:24:55;99860.50;;;3.61;100.00
43818;BME280;29868;47.360;18.984;2022-11-20T17:27:21;99865.63;;;3.61;100.00
43818;BME280;29868;47.360;18.984;2022-11-20T17:29:46;99855.47;;;3.64;100.00
43818;BME280;29868;47.360;18.984;2022-11-20T17:32:11;99854.53;;;3.62;100.00
43818;BME280;29868;47.360;18.984;2022-11-20T17:34:37;99854.41;;;3.59;100.00
43818;BME280;29868;47.360;18.984;2022-11-20T17:37:02;99842.41;;;3.58;100.00
43818;BME280;29868;47.360;18.984;2022-11-20T17:39:27;99833.81;;;3.58;100.00
43818;BME280;29868;47.360;18.984;2022-11-20T17:41:53;99837.97;;;3.54;100.00
43818;BME280;29868;47.360;18.984;2022-11-20T17:44:37;99840.59;;;3.56;100.00
43818;BME280;29868;47.360;18.984;2022-11-20T17:47:02;99846.88;;;3.40;100.00
43818;BME280;29868;47.360;18.984;2022-11-20T17:49:28;99848.69;;;3.42;100.00
43818;BME280;29868;47.360;18.984;2022-11-20T17:51:53;99855.00;;;3.52;100.00
43818;BME280;29868;47.360;18.984;2022-11-20T17:54:19;99850.84;;;3.56;100.00
43818;BME280;29868;47.360;18.984;2022-11-20T17:56:44;99857.69;;;3.55;100.00
43818;BME280;29868;47.360;18.984;2022-11-20T17:59:28;99856.06;;;3.57;100.00
43818;BME280;29868;47.360;18.984;2022-11-20T18:01:53;99862.81;;;3.55;100.00
43818;BME280;29868;47.360;18.984;2022-11-20T18:04:19;99862.72;;;3.52;100.00
43818;BME280;29868;47.360;18.984;2022-11-20T18:06:44;99861.69;;;3.47;100.00
43818;BME280;29868;47.360;18.984;2022-11-20T18:09:10;99871.13;;;3.48;100.00
43818;BME280;29868;47.360;18.984;2022-11-20T18:11:38;99870.25;;;3.48;100.00
43818;BME280;29868;47.360;18.984;2022-11-20T18:14:05;99883.75;;;3.42;100.00
43818;BME280;29868;47.360;18.984;2022-11-20T18:17:16;99890.06;;;3.28;100.00
43818;BME280;29868;47.360;18.984;2022-11-20T18:19:44;99902.44;;;3.38;100.00
43818;BME280;29868;47.360;18.984;2022-11-20T18:22:11;99901.63;;;2.94;100.00
43818;BME280;29868;47.360;18.984;2022-11-20T18:24:37;99897.75;;;2.83;100.00
43818;BME280;29868;47.360;18.984;2022-11-20T18:27:08;99899.72;;;2.67;100.00
43818;BME280;29868;47.360;18.984;2022-11-20T18:29:36;99901.63;;;2.94;100.00
43818;BME280;29868;47.360;18.984;2022-11-20T18:32:02;99902.13;;;2.63;100.00
43818;BME280;29868;47.360;18.984;2022-11-20T18:34:27;99904.13;;;2.70;100.00
43818;BME280;29868;47.360;18.984;2022-11-20T18:36:53;99904.38;;;2.55;100.00
43818;BME280;29868;47.360;18.984;2022-11-20T18:39:18;99921.19;;;2.28;100.00
43818;BME280;29868;47.360;18.984;2022-11-20T18:41:44;99924.22;;;2.19;100.00
43818;BME280;29868;47.360;18.984;2022-11-20T18:44:30;99920.34;;;2.08;100.00
43818;BME280;29868;47.360;18.984;2022-11-20T18:47:25;99923.06;;;1.91;100.00
43818;BME280;29868;47.360;18.984;2022-11-20T18:49:53;99925.25;;;1.82;100.00
43818;BME280;29868;47.360;18.984;2022-11-20T18:52:32;99921.13;;;1.86;100.00
43818;BME280;29868;47.360;18.984;2022-11-20T18:54:58;99930.16;;;1.58;100.00
43818;BME280;29868;47.360;18.984;2022-11-20T18:57:26;99929.09;;;1.53;100.00
43818;BME280;29868;47.360;18.984;2022-11-20T18:59:53;99933.53;;;1.57;100.00
43818;BME280;29868;47.360;18.984;2022-11-20T19:02:19;99927.34;;;1.52;100.00
43818;BME280;29868;47.360;18.984;2022-11-20T19:04:45;99922.06;;;1.49;100.00
43818;BME280;29868;47.360;18.984;2022-11-20T19:07:11;99915.41;;;1.53;100.00
43818;BME280;29868;47.360;18.984;2022-11-20T19:09:38;99912.91;;;1.54;100.00
43818;BME280;29868;47.360;18.984;2022-11-20T19:12:05;99921.94;;;1.46;100.00
43818;BME280;29868;47.360;18.984;2022-11-20T19:14:31;99911.88;;;1.51;100.00
43818;BME280;29868;47.360;18.984;2022-11-20T19:16:56;99908.31;;;1.47;100.00
43818;BME280;29868;47.360;18.984;2022-11-20T19:19:22;99922.06;;;1.49;100.00
43818;BME280;29868;47.360;18.984;2022-11-20T19:21:47;99922.13;;;1.51;100.00
43818;BME280;29868;47.360;18.984;2022-11-20T19:24:13;99920.72;;;1.57;100.00
43818;BME280;29868;47.360;18.984;2022-11-20T19:26:38;99911.31;;;1.56;100.00
43818;BME280;29868;47.360;18.984;2022-11-20T19:29:04;99904.63;;;1.60;100.00
43818;BME280;29868;47.360;18.984;2022-11-20T19:31:30;99898.66;;;1.59;100.00
43818;BME280;29868;47.360;18.984;2022-11-20T19:34:00;99897.75;;;1.59;100.00
43818;BME280;29868;47.360;18.984;2022-11-20T19:36:29;99896.75;;;1.75;100.00
43818;BME280;29868;47.360;18.984;2022-11-20T19:38:55;99901.25;;;1.80;100.00
43818;BME280;29868;47.360;18.984;2022-11-20T19:41:23;99904.13;;;1.88;100.00
43818;BME280;29868;47.360;18.984;2022-11-20T19:44:06;99891.53;;;1.73;100.00
43818;BME280;29868;47.360;18.984;2022-11-20T19:46:34;99900.78;;;1.69;100.00
43818;BME280;29868;47.360;18.984;2022-11-20T19:49:00;99908.25;;;1.65;100.00
